createdAt,value
2017-12-05T00:00:18.893Z,3.03
2017-12-05T00:02:48.730Z,3.00
2017-12-05T00:05:17.870Z,3.10
2017-12-05T00:07:46.571Z,2.90
2017-12-05T00:10:15.724Z,2.97
2017-12-05T00:12:44.044Z,3.10
2017-12-05T00:15:12.443Z,3.10
2017-12-05T00:17:40.800Z,3.53
2017-12-05T00:20:09.130Z,3.10
2017-12-05T00:22:38.225Z,3.00
2017-12-05T00:25:07.806Z,3.17
2017-12-05T00:27:36.667Z,3.40
2017-12-05T00:30:05.017Z,3.83
2017-12-05T00:32:34.485Z,3.87
2017-12-05T00:35:02.800Z,3.90
2017-12-05T00:37:31.128Z,3.70
2017-12-05T00:40:00.361Z,3.70
2017-12-05T00:42:29.146Z,3.87
2017-12-05T00:44:58.566Z,2.93
2017-12-05T00:47:33.168Z,2.90
2017-12-05T00:50:02.136Z,3.70
2017-12-05T00:52:31.237Z,2.93
2017-12-05T00:55:00.361Z,3.30
2017-12-05T00:57:28.719Z,2.83
2017-12-05T00:59:57.036Z,2.30
2017-12-05T01:02:26.182Z,2.87
2017-12-05T01:04:54.527Z,2.77
2017-12-05T01:07:22.879Z,2.20
2017-12-05T01:09:51.337Z,2.50
2017-12-05T01:12:19.672Z,2.80
2017-12-05T01:14:47.998Z,2.10
2017-12-05T01:17:17.163Z,2.60
2017-12-05T01:19:45.506Z,1.90
2017-12-05T01:22:13.814Z,2.20
2017-12-05T01:24:42.194Z,2.30
2017-12-05T01:27:10.526Z,2.27
2017-12-05T01:29:49.501Z,1.93
2017-12-05T01:32:17.849Z,2.50
2017-12-05T01:34:46.177Z,2.53
2017-12-05T01:37:14.710Z,2.43
2017-12-05T01:39:43.079Z,2.87
2017-12-05T01:42:12.199Z,2.90
2017-12-05T01:44:40.549Z,3.50
2017-12-05T01:47:08.866Z,2.87
2017-12-05T01:49:37.202Z,3.20
2017-12-05T01:52:05.794Z,2.53
2017-12-05T01:54:34.129Z,2.13
2017-12-05T01:57:02.439Z,2.03
2017-12-05T01:59:30.817Z,1.73
2017-12-05T02:01:59.130Z,2.10
2017-12-05T02:04:27.478Z,1.63
2017-12-05T02:06:56.590Z,1.40
2017-12-05T02:09:25.789Z,1.47
2017-12-05T02:11:54.163Z,1.30
2017-12-05T02:14:23.540Z,1.23
2017-12-05T02:16:51.892Z,1.20
2017-12-05T02:19:20.257Z,1.20
2017-12-05T02:21:48.610Z,0.93
2017-12-05T02:24:16.956Z,0.87
2017-12-05T02:26:45.281Z,0.90
2017-12-05T02:29:13.842Z,0.80
2017-12-05T02:31:58.882Z,0.80
2017-12-05T02:34:27.779Z,1.00
2017-12-05T02:36:56.903Z,1.00
2017-12-05T02:39:25.220Z,1.10
2017-12-05T02:41:53.678Z,1.10
2017-12-05T02:44:22.033Z,1.40
2017-12-05T02:46:51.136Z,1.37
2017-12-05T02:49:20.262Z,1.53
2017-12-05T02:51:48.611Z,1.20
2017-12-05T02:54:16.958Z,1.50
2017-12-05T02:56:45.568Z,1.80
2017-12-05T02:59:13.891Z,1.50
2017-12-05T03:01:42.315Z,1.40
2017-12-05T03:04:11.444Z,1.67
2017-12-05T03:06:39.775Z,1.73
2017-12-05T03:09:08.089Z,1.40
2017-12-05T03:11:37.188Z,1.60
2017-12-05T03:14:06.276Z,1.43
2017-12-05T03:16:35.375Z,1.70
2017-12-05T03:19:04.780Z,1.07
2017-12-05T03:21:33.124Z,1.70
2017-12-05T03:24:01.425Z,1.70
2017-12-05T03:26:29.780Z,1.33
2017-12-05T03:28:58.114Z,1.80
2017-12-05T03:31:26.450Z,2.60
2017-12-05T03:33:54.819Z,2.30
2017-12-05T03:36:23.164Z,2.03
2017-12-05T03:38:51.494Z,1.70
2017-12-05T03:41:20.030Z,2.70
2017-12-05T03:43:48.391Z,2.33
2017-12-05T03:46:16.866Z,2.33
2017-12-05T03:48:45.253Z,2.30
2017-12-05T03:51:13.598Z,3.07
2017-12-05T03:53:42.278Z,2.40
2017-12-05T03:56:10.635Z,2.90
2017-12-05T03:58:38.985Z,2.70
2017-12-05T04:01:07.306Z,2.70
2017-12-05T04:03:36.015Z,2.87
2017-12-05T04:06:04.460Z,3.20
2017-12-05T04:08:32.964Z,3.60
2017-12-05T04:11:01.321Z,4.13
2017-12-05T04:13:29.640Z,3.13
2017-12-05T04:15:58.734Z,2.60
2017-12-05T04:18:27.853Z,3.07
2017-12-05T04:20:56.220Z,2.70
2017-12-05T04:23:24.549Z,2.20
2017-12-05T04:25:53.202Z,2.90
2017-12-05T04:28:21.553Z,1.70
2017-12-05T04:30:50.665Z,1.87
2017-12-05T04:33:19.035Z,1.80
2017-12-05T04:35:47.380Z,1.80
2017-12-05T04:38:15.734Z,2.10
2017-12-05T04:40:44.116Z,1.40
2017-12-05T04:43:12.450Z,1.03
2017-12-05T04:45:40.794Z,1.20
2017-12-05T04:48:09.460Z,1.00
2017-12-05T04:50:37.784Z,1.00
2017-12-05T04:53:06.099Z,0.97
2017-12-05T04:55:34.747Z,0.70
2017-12-05T04:58:03.201Z,1.00
2017-12-05T05:00:31.552Z,0.87
2017-12-05T05:02:59.932Z,0.80
2017-12-05T05:05:28.268Z,0.80
2017-12-05T05:07:56.579Z,1.00
2017-12-05T05:10:25.230Z,1.13
2017-12-05T05:12:58.061Z,0.70
2017-12-05T05:15:26.421Z,0.60
2017-12-05T05:17:54.745Z,0.70
2017-12-05T05:20:23.058Z,0.70
2017-12-05T05:22:51.478Z,0.60
2017-12-05T05:25:19.808Z,0.70
2017-12-05T05:27:48.931Z,0.70
2017-12-05T05:30:17.538Z,0.73
2017-12-05T05:32:45.864Z,1.07
2017-12-05T05:35:14.945Z,1.00
2017-12-05T05:37:44.106Z,1.30
2017-12-05T05:40:12.457Z,2.33
2017-12-05T05:42:40.802Z,2.50
2017-12-05T05:45:09.193Z,2.27
2017-12-05T05:47:38.441Z,3.33
2017-12-05T05:50:06.786Z,3.63
2017-12-05T05:52:35.608Z,3.27
2017-12-05T05:55:03.957Z,3.90
2017-12-05T05:57:32.650Z,4.17
2017-12-05T06:00:00.984Z,3.40
2017-12-05T06:02:29.499Z,3.33
2017-12-05T06:04:57.815Z,3.87
2017-12-05T06:07:26.189Z,3.57
2017-12-05T06:09:54.511Z,3.50
2017-12-05T06:12:22.807Z,3.20
2017-12-05T06:14:52.115Z,3.47
2017-12-05T06:17:20.627Z,4.10
2017-12-05T06:19:48.937Z,3.00
2017-12-05T06:22:17.321Z,3.20
2017-12-05T06:24:45.715Z,2.80
2017-12-05T06:27:14.827Z,3.20
2017-12-05T06:29:43.992Z,3.07
2017-12-05T06:32:12.342Z,3.20
2017-12-05T06:34:40.690Z,2.73
2017-12-05T06:37:09.192Z,2.77
2017-12-05T06:39:37.501Z,3.40
2017-12-05T06:42:05.825Z,3.90
2017-12-05T06:44:34.214Z,2.97
2017-12-05T06:47:02.537Z,3.30
2017-12-05T06:49:30.902Z,3.03
2017-12-05T06:51:59.297Z,2.83
2017-12-05T06:54:27.621Z,2.80
2017-12-05T06:56:55.951Z,3.30
2017-12-05T06:59:27.451Z,3.50
2017-12-05T07:01:55.792Z,3.10
2017-12-05T07:04:24.103Z,3.07
2017-12-05T07:06:53.207Z,3.40
2017-12-05T07:09:22.317Z,3.47
2017-12-05T07:11:50.722Z,3.23
2017-12-05T07:14:19.106Z,2.93
2017-12-05T07:16:47.457Z,3.43
2017-12-05T07:19:15.798Z,3.90
2017-12-05T07:21:45.189Z,3.17
2017-12-05T07:24:13.521Z,3.00
2017-12-05T07:26:41.871Z,2.60
2017-12-05T07:29:10.482Z,2.53
2017-12-05T07:31:38.822Z,2.50
2017-12-05T07:34:07.919Z,2.90
2017-12-05T07:36:37.030Z,3.37
2017-12-05T07:39:05.353Z,3.30
2017-12-05T07:41:33.713Z,3.77
2017-12-05T07:44:02.238Z,3.50
2017-12-05T07:46:30.626Z,4.10
2017-12-05T07:48:58.968Z,3.53
2017-12-05T07:51:28.082Z,4.40
2017-12-05T07:53:56.419Z,4.77
2017-12-05T07:56:24.790Z,3.80
2017-12-05T07:58:53.603Z,3.70
2017-12-05T08:01:21.962Z,4.40
2017-12-05T08:03:50.434Z,4.50
2017-12-05T08:06:19.114Z,4.83
2017-12-05T08:08:48.211Z,4.20
2017-12-05T08:11:16.534Z,4.40
2017-12-05T08:13:44.902Z,4.80
2017-12-05T08:16:15.082Z,4.47
2017-12-05T08:18:43.434Z,4.43
2017-12-05T08:21:11.806Z,5.28
2017-12-05T08:23:40.173Z,6.70
2017-12-05T08:26:08.524Z,4.90
2017-12-05T08:28:37.301Z,4.83
2017-12-05T08:31:05.643Z,4.70
2017-12-05T08:33:34.218Z,4.30
2017-12-05T08:36:02.576Z,4.90
2017-12-05T08:38:30.892Z,5.30
2017-12-05T08:40:59.206Z,4.70
2017-12-05T08:43:27.548Z,4.47
2017-12-05T08:45:55.893Z,5.23
2017-12-05T08:48:24.231Z,4.20
2017-12-05T08:50:52.816Z,4.60
2017-12-05T08:53:21.155Z,4.37
2017-12-05T08:55:49.506Z,4.90
2017-12-05T08:58:18.039Z,4.30
2017-12-05T09:00:47.636Z,8.00
2017-12-05T09:03:15.988Z,5.00
2017-12-05T09:05:44.369Z,4.30
2017-12-05T09:08:12.704Z,4.40
2017-12-05T09:10:41.041Z,4.90
2017-12-05T09:13:09.594Z,4.87
2017-12-05T09:15:37.967Z,4.37
2017-12-05T09:18:06.321Z,5.30
2017-12-05T09:20:34.677Z,5.53
2017-12-05T09:23:03.802Z,6.30
2017-12-05T09:25:32.152Z,5.53
2017-12-05T09:28:00.505Z,5.60
2017-12-05T09:30:28.827Z,4.80
2017-12-05T09:32:57.183Z,5.80
2017-12-05T09:35:25.699Z,5.37
2017-12-05T09:37:54.043Z,6.47
2017-12-05T09:40:23.257Z,5.43
2017-12-05T09:42:51.610Z,5.73
2017-12-05T09:45:20.232Z,6.20
2017-12-05T09:47:48.586Z,6.70
2017-12-05T09:50:17.184Z,5.80
2017-12-05T09:52:45.538Z,6.20
2017-12-05T09:55:13.864Z,6.20
2017-12-05T09:57:42.616Z,6.67
2017-12-05T10:00:10.954Z,7.03
2017-12-05T10:02:39.702Z,7.20
2017-12-05T10:05:08.291Z,7.10
2017-12-05T10:07:36.648Z,7.03
2017-12-05T10:10:05.755Z,8.57
2017-12-05T10:12:34.934Z,7.03
2017-12-05T10:15:25.866Z,7.20
2017-12-05T10:17:55.080Z,7.20
2017-12-05T10:20:23.688Z,8.80
2017-12-05T10:22:52.038Z,6.60
2017-12-05T10:25:20.397Z,6.40
2017-12-05T10:27:49.497Z,5.53
2017-12-05T10:30:18.604Z,5.80
2017-12-05T10:32:48.014Z,6.63
2017-12-05T10:35:16.356Z,6.50
2017-12-05T10:37:44.981Z,6.57
2017-12-05T10:40:13.425Z,5.87
2017-12-05T10:42:41.775Z,7.03
2017-12-05T10:45:10.153Z,6.60
2017-12-05T10:47:38.530Z,7.40
2017-12-05T10:50:06.919Z,7.90
2017-12-05T10:52:35.248Z,6.80
2017-12-05T10:55:28.100Z,6.27
2017-12-05T10:57:56.476Z,6.30
2017-12-05T11:00:24.823Z,6.40
2017-12-05T11:02:54.258Z,6.30
2017-12-05T11:05:23.451Z,7.23
2017-12-05T11:07:51.785Z,6.80
2017-12-05T11:10:20.207Z,7.27
2017-12-05T11:12:48.526Z,6.20
2017-12-05T11:15:16.854Z,6.67
2017-12-05T11:17:46.134Z,6.93
2017-12-05T11:20:14.464Z,5.67
2017-12-05T11:22:42.919Z,5.13
2017-12-05T11:25:12.046Z,5.23
2017-12-05T11:27:40.398Z,5.37
2017-12-05T11:30:08.746Z,5.77
2017-12-05T11:32:37.123Z,5.73
2017-12-05T11:35:05.459Z,5.33
2017-12-05T11:37:33.931Z,8.60
2017-12-05T11:40:02.610Z,5.60
2017-12-05T11:42:30.948Z,5.27
2017-12-05T11:44:59.274Z,4.87
2017-12-05T11:47:27.663Z,6.43
2017-12-05T11:49:56.005Z,6.50
2017-12-05T11:52:25.111Z,6.73
2017-12-05T11:54:54.239Z,6.60
2017-12-05T11:57:22.579Z,6.90
2017-12-05T11:59:50.909Z,6.73
2017-12-05T12:02:19.565Z,7.40
2017-12-05T12:04:48.277Z,6.43
2017-12-05T12:07:16.637Z,6.83
2017-12-05T12:09:44.998Z,7.60
2017-12-05T12:12:13.380Z,6.57
2017-12-05T12:14:42.702Z,7.00
2017-12-05T12:17:11.073Z,7.60
2017-12-05T12:19:39.518Z,6.83
2017-12-05T12:22:07.876Z,6.13
2017-12-05T12:24:36.725Z,6.60
2017-12-05T12:27:05.083Z,6.90
2017-12-05T12:29:34.182Z,7.33
2017-12-05T12:32:03.331Z,6.87
2017-12-05T12:34:31.697Z,6.30
2017-12-05T12:37:00.020Z,7.00
2017-12-05T12:39:28.487Z,6.83
2017-12-05T12:41:56.800Z,7.17
2017-12-05T12:44:25.991Z,6.80
2017-12-05T12:46:54.703Z,5.53
2017-12-05T12:49:23.043Z,7.10
2017-12-05T12:51:51.479Z,6.73
2017-12-05T12:54:19.856Z,7.50
2017-12-05T12:56:48.429Z,7.80
2017-12-05T12:59:16.770Z,6.77
2017-12-05T13:01:45.179Z,7.97
2017-12-05T13:04:13.522Z,7.10
2017-12-05T13:06:41.877Z,6.87
2017-12-05T13:09:10.584Z,5.43
2017-12-05T13:11:38.888Z,6.67
2017-12-05T13:14:07.218Z,5.97
2017-12-05T13:16:35.590Z,5.97
2017-12-05T13:19:04.132Z,5.97
2017-12-05T13:21:33.411Z,7.03
2017-12-05T13:24:01.886Z,5.93
2017-12-05T13:26:30.238Z,5.53
2017-12-05T13:31:56.416Z,4.90
2017-12-05T13:34:24.714Z,6.00
2017-12-05T13:36:53.040Z,5.77
2017-12-05T13:39:21.698Z,5.80
2017-12-05T13:41:50.033Z,5.03
2017-12-05T13:44:18.350Z,5.63
2017-12-05T13:46:46.988Z,5.60
2017-12-05T13:49:15.312Z,5.27
2017-12-05T13:51:43.654Z,4.70
2017-12-05T13:54:12.583Z,4.90
2017-12-05T13:56:40.921Z,5.13
2017-12-05T13:59:09.262Z,5.87
2017-12-05T14:01:38.029Z,6.23
2017-12-05T14:04:06.375Z,5.43
2017-12-05T14:06:34.886Z,6.13
2017-12-05T14:09:04.485Z,5.23
2017-12-05T14:11:32.799Z,5.10
2017-12-05T14:14:01.116Z,5.00
2017-12-05T14:16:30.071Z,4.87
2017-12-05T14:18:58.405Z,6.17
2017-12-05T14:21:26.734Z,5.03
2017-12-05T14:23:55.337Z,4.50
2017-12-05T14:26:23.859Z,3.97
2017-12-05T14:28:52.180Z,3.73
2017-12-05T14:31:21.037Z,4.73
2017-12-05T14:33:49.362Z,4.10
2017-12-05T14:36:17.771Z,4.97
2017-12-05T14:38:46.493Z,4.73
2017-12-05T14:41:14.831Z,5.90
2017-12-05T14:43:43.162Z,5.30
2017-12-05T14:46:11.779Z,5.93
2017-12-05T14:48:40.120Z,5.70
2017-12-05T14:51:08.515Z,5.50
2017-12-05T14:53:37.161Z,5.33
2017-12-05T14:56:05.539Z,5.83
2017-12-05T14:58:33.878Z,5.67
2017-12-05T15:01:02.591Z,5.20
2017-12-05T15:03:31.697Z,6.03
2017-12-05T15:06:00.028Z,6.73
2017-12-05T15:08:29.274Z,6.60
2017-12-05T15:10:57.606Z,6.03
2017-12-05T15:13:25.941Z,6.50
2017-12-05T15:15:54.611Z,5.37
2017-12-05T15:18:23.693Z,4.73
2017-12-05T15:20:51.999Z,5.30
2017-12-05T15:23:20.688Z,4.20
2017-12-05T15:25:49.033Z,4.90
2017-12-05T15:28:17.344Z,4.60
2017-12-05T15:30:45.947Z,5.27
2017-12-05T15:33:14.264Z,4.40
2017-12-05T15:35:42.578Z,4.40
2017-12-05T15:38:12.004Z,4.00
2017-12-05T15:40:40.314Z,4.17
2017-12-05T15:43:08.666Z,5.00
2017-12-05T15:45:37.628Z,5.57
2017-12-05T15:48:06.731Z,5.53
2017-12-05T15:50:35.076Z,5.40
2017-12-05T15:53:03.427Z,6.03
2017-12-05T15:55:31.723Z,5.97
2017-12-05T15:58:00.051Z,7.40
2017-12-05T16:00:28.400Z,5.63
2017-12-05T16:02:56.747Z,6.27
2017-12-05T16:05:25.083Z,6.23
2017-12-05T16:07:53.546Z,6.87
2017-12-05T16:10:23.061Z,7.30
2017-12-05T16:12:52.199Z,7.40
2017-12-05T16:15:20.531Z,7.33
2017-12-05T16:17:48.862Z,6.07
2017-12-05T16:20:17.176Z,7.80
2017-12-05T16:22:45.527Z,7.60
2017-12-05T16:25:13.865Z,5.83
2017-12-05T16:27:42.219Z,6.73
2017-12-05T16:30:11.844Z,6.30
2017-12-05T16:32:40.164Z,6.70
2017-12-05T16:35:08.473Z,6.10
2017-12-05T16:37:36.817Z,6.40
2017-12-05T16:40:05.130Z,6.40
2017-12-05T16:42:33.465Z,6.30
2017-12-05T16:45:01.822Z,5.77
2017-12-05T16:47:30.159Z,6.60
2017-12-05T16:49:58.510Z,6.37
2017-12-05T16:52:27.124Z,7.53
2017-12-05T16:54:56.446Z,6.97
2017-12-05T16:57:26.231Z,7.47
2017-12-05T16:59:54.582Z,7.00
2017-12-05T17:02:22.903Z,6.93
2017-12-05T17:04:52.335Z,7.37
2017-12-05T17:07:20.667Z,7.43
2017-12-05T17:09:49.031Z,8.00
2017-12-05T17:12:17.415Z,7.93
2017-12-05T17:14:46.155Z,7.80
2017-12-05T17:17:14.494Z,8.17
2017-12-05T17:19:42.808Z,7.70
2017-12-05T17:22:11.952Z,7.83
2017-12-05T17:24:40.498Z,8.00
2017-12-05T17:27:08.829Z,8.20
2017-12-05T17:29:37.186Z,7.60
2017-12-05T17:32:05.535Z,7.00
2017-12-05T17:34:33.874Z,8.37
2017-12-05T17:37:02.381Z,8.33
2017-12-05T17:39:31.587Z,7.83
2017-12-05T17:41:59.949Z,8.00
2017-12-05T17:44:29.095Z,9.20
2017-12-05T17:46:57.439Z,8.13
2017-12-05T17:49:25.792Z,9.23
2017-12-05T17:51:54.188Z,9.20
2017-12-05T17:54:22.540Z,8.83
2017-12-05T17:56:50.923Z,10.70
2017-12-05T17:59:19.416Z,9.60
2017-12-05T18:01:47.805Z,9.80
2017-12-05T18:04:16.906Z,10.10
2017-12-05T18:06:46.307Z,10.40
2017-12-05T18:09:15.407Z,9.50
2017-12-05T18:11:43.716Z,10.40
2017-12-05T18:14:12.058Z,9.70
2017-12-05T18:16:41.158Z,9.57
2017-12-05T18:19:10.283Z,8.83
2017-12-05T18:21:39.054Z,8.83
2017-12-05T18:24:07.417Z,8.60
2017-12-05T18:26:36.521Z,8.30
2017-12-05T18:29:05.709Z,8.40
2017-12-05T18:31:34.031Z,7.23
2017-12-05T18:34:02.377Z,7.53
2017-12-05T18:36:30.742Z,8.90
2017-12-05T18:38:59.085Z,6.70
2017-12-05T18:41:27.430Z,7.30
2017-12-05T18:43:56.015Z,8.07
2017-12-05T18:46:24.427Z,7.87
2017-12-05T18:48:52.875Z,7.60
2017-12-05T18:51:21.323Z,7.87
2017-12-05T18:53:50.381Z,8.67
2017-12-05T18:56:18.752Z,8.10
2017-12-05T18:58:47.256Z,9.00
2017-12-05T19:01:15.587Z,8.97
2017-12-05T19:03:44.712Z,9.93
2017-12-05T19:06:13.333Z,10.60
2017-12-05T19:08:41.678Z,9.40
2017-12-05T19:11:16.443Z,9.17
2017-12-05T19:13:44.819Z,9.30
2017-12-05T19:16:13.160Z,10.67
2017-12-05T19:18:41.536Z,9.10
2017-12-05T19:21:09.985Z,9.20
2017-12-05T19:23:38.365Z,9.27
2017-12-05T19:26:07.587Z,9.33
2017-12-05T19:28:35.958Z,8.57
2017-12-05T19:31:04.299Z,9.00
2017-12-05T19:33:32.714Z,8.57
2017-12-05T19:36:01.132Z,9.23
2017-12-05T19:38:35.284Z,10.20
2017-12-05T19:41:04.411Z,9.90
2017-12-05T19:43:32.746Z,10.70
2017-12-05T19:46:01.470Z,12.20
2017-12-05T19:48:29.855Z,10.40
2017-12-05T19:51:00.738Z,11.70
2017-12-05T19:53:29.386Z,10.50
2017-12-05T19:55:57.727Z,12.50
2017-12-05T19:58:26.078Z,11.73
2017-12-05T20:00:54.443Z,12.27
2017-12-05T20:03:22.808Z,10.30
2017-12-05T20:05:51.181Z,11.43
2017-12-05T20:08:19.796Z,11.30
2017-12-05T20:10:48.138Z,10.60
2017-12-05T20:13:16.857Z,10.33
2017-12-05T20:15:45.253Z,10.40
2017-12-05T20:18:13.602Z,9.70
2017-12-05T20:20:41.947Z,8.63
2017-12-05T20:23:10.319Z,7.53
2017-12-05T20:25:39.480Z,7.87
2017-12-05T20:28:07.824Z,7.90
2017-12-05T20:30:36.572Z,7.50
2017-12-05T20:33:05.686Z,7.40
2017-12-05T20:35:34.028Z,7.30
2017-12-05T20:38:02.371Z,7.43
2017-12-05T20:40:30.697Z,7.00
2017-12-05T20:42:59.072Z,7.23
2017-12-05T20:45:27.682Z,5.97
2017-12-05T20:47:56.799Z,6.30
2017-12-05T20:50:25.163Z,5.70
2017-12-05T20:52:54.361Z,5.30
2017-12-05T20:55:23.449Z,5.37
2017-12-05T20:57:52.558Z,5.10
2017-12-05T21:00:20.957Z,5.10
2017-12-05T21:02:49.378Z,4.93
2017-12-05T21:05:17.716Z,5.33
2017-12-05T21:07:46.092Z,5.57
2017-12-05T21:10:14.480Z,5.37
2017-12-05T21:12:43.605Z,6.20
2017-12-05T21:15:13.508Z,7.00
2017-12-05T21:17:41.855Z,6.80
2017-12-05T21:20:10.198Z,6.47
2017-12-05T21:22:39.155Z,7.40
2017-12-05T21:25:07.478Z,6.53
2017-12-05T21:27:36.583Z,8.53
2017-12-05T21:30:05.709Z,7.60
2017-12-05T21:32:34.045Z,7.73
2017-12-05T21:35:03.189Z,7.37
2017-12-05T21:37:31.607Z,7.43
2017-12-05T21:39:59.973Z,7.13
2017-12-05T21:42:28.304Z,8.13
2017-12-05T21:44:56.666Z,7.90
2017-12-05T21:47:25.751Z,8.03
2017-12-05T21:49:54.739Z,8.00
2017-12-05T21:52:23.129Z,7.17
2017-12-05T21:54:51.480Z,7.63
2017-12-05T21:57:19.834Z,7.80
2017-12-05T21:59:48.589Z,8.23
2017-12-05T22:02:17.260Z,7.53
2017-12-05T22:04:46.358Z,8.57
2017-12-05T22:07:14.738Z,8.87
2017-12-05T22:09:43.891Z,9.30
2017-12-05T22:12:12.246Z,9.50
2017-12-05T22:14:42.267Z,10.13
2017-12-05T22:17:10.603Z,10.27
2017-12-05T22:19:38.927Z,10.23
2017-12-05T22:22:07.580Z,10.77
2017-12-05T22:24:35.891Z,11.20
2017-12-05T22:27:04.219Z,11.60
2017-12-05T22:29:32.652Z,9.97
2017-12-05T22:32:01.002Z,11.27
2017-12-05T22:34:29.346Z,11.37
2017-12-05T22:36:57.943Z,10.20
2017-12-05T22:39:26.308Z,10.77
2017-12-05T22:41:54.644Z,10.87
2017-12-05T22:44:23.176Z,12.53
2017-12-05T22:46:51.527Z,11.50
2017-12-05T22:49:19.864Z,10.67
2017-12-05T22:51:48.261Z,11.90
2017-12-05T22:55:37.921Z,11.70
2017-12-05T22:58:07.094Z,12.80
2017-12-05T23:00:35.471Z,14.23
2017-12-05T23:03:03.849Z,14.10
2017-12-05T23:05:32.503Z,14.67
2017-12-05T23:08:00.851Z,15.43
2017-12-05T23:10:29.304Z,15.57
2017-12-05T23:12:57.950Z,16.63
2017-12-05T23:15:26.267Z,15.00
2017-12-05T23:17:54.601Z,15.80
2017-12-05T23:20:22.953Z,15.30
2017-12-05T23:22:51.319Z,15.13
2017-12-05T23:25:20.442Z,17.00
2017-12-05T23:27:48.910Z,16.80
2017-12-05T23:30:18.008Z,16.73
2017-12-05T23:32:46.348Z,16.20
2017-12-05T23:35:14.698Z,15.40
2017-12-05T23:37:43.053Z,15.77
2017-12-05T23:40:11.426Z,14.40
2017-12-05T23:42:39.772Z,16.53
2017-12-05T23:45:08.870Z,15.53
2017-12-05T23:47:37.986Z,15.53
2017-12-05T23:50:07.554Z,15.80
2017-12-05T23:52:35.844Z,14.93
2017-12-05T23:55:04.172Z,14.80
2017-12-05T23:57:32.484Z,14.03
